Time;durP1;ratioP1;P1;durP2;ratioP2;P2;SDS_P1;SDS_P2;PMS_P1;PMS_P2;Temp;Humidity;BMP_temperature;BMP_pressure;BME280_temperature;BME280_humidity;BME280_pressure;Samples;Min_cycle;Max_cycle;Signal;HPM_P1;HPM_P2
2023/09/04 00:00:57;;;;;;;0.17;0.17;;;17.20;56.80;;;;;;5071539;28;20199;-58
2023/09/04 00:03:29;;;;;;;0.13;0.13;;;17.30;57.40;;;;;;5071262;28;20661;-57
2023/09/04 00:06:00;;;;;;;0.03;0.03;;;17.30;56.80;;;;;;5070634;28;20209;-58
2023/09/04 00:08:30;;;;;;;0.10;0.10;;;17.30;56.80;;;;;;5070452;28;20218;-58
2023/09/04 00:11:01;;;;;;;0.10;0.10;;;17.30;56.80;;;;;;5070859;28;20187;-57
2023/09/04 00:13:32;;;;;;;0.10;0.10;;;17.30;56.70;;;;;;5072051;28;20562;-58
2023/09/04 00:16:07;;;;;;;0.10;0.10;;;17.30;56.70;;;;;;5071411;28;20602;-58
2023/09/04 00:18:38;;;;;;;0.10;0.10;;;17.30;56.70;;;;;;5071311;28;20686;-58
2023/09/04 00:21:08;;;;;;;0.10;0.10;;;17.40;56.70;;;;;;5071419;28;20203;-58
2023/09/04 00:23:39;;;;;;;0.10;0.10;;;17.30;56.70;;;;;;5071421;28;20209;-57
2023/09/04 00:26:09;;;;;;;0.10;0.10;;;17.30;56.60;;;;;;5071384;28;20202;-58
2023/09/04 00:28:40;;;;;;;0.05;0.05;;;17.30;56.60;;;;;;5071527;28;20203;-55
2023/09/04 00:31:13;;;;;;;0.08;0.08;;;17.40;56.60;;;;;;5071129;28;20598;-58
2023/09/04 00:33:43;;;;;;;0.10;0.10;;;17.40;56.70;;;;;;5071223;28;20321;-58
2023/09/04 00:36:14;;;;;;;0.10;0.10;;;17.40;56.60;;;;;;5070558;28;20281;-59
2023/09/04 00:38:45;;;;;;;0.10;0.10;;;17.40;56.70;;;;;;5071023;28;20229;-58
2023/09/04 00:41:15;;;;;;;0.10;0.10;;;17.40;56.80;;;;;;5071101;28;20199;-58
2023/09/04 00:43:46;;;;;;;0.10;0.10;;;17.40;56.80;;;;;;5071491;28;20279;-58
2023/09/04 00:46:19;;;;;;;0.10;0.10;;;17.40;56.80;;;;;;5071181;28;20222;-58
2023/09/04 00:48:51;;;;;;;0.10;0.10;;;17.40;56.80;;;;;;5071453;28;20199;-58
2023/09/04 00:51:21;;;;;;;0.08;0.08;;;17.40;56.80;;;;;;5071647;28;20195;-58
2023/09/04 00:53:52;;;;;;;0.10;0.10;;;17.40;56.80;;;;;;5072010;28;20199;-58
2023/09/04 00:56:24;;;;;;;0.10;0.10;;;17.40;56.70;;;;;;5071362;28;20203;-58
2023/09/04 00:58:55;;;;;;;0.10;0.10;;;17.50;56.70;;;;;;5071091;28;20318;-58
2023/09/04 01:01:28;;;;;;;0.10;0.10;;;17.50;56.70;;;;;;5070962;28;20191;-57
2023/09/04 01:03:59;;;;;;;0.10;0.10;;;17.50;56.60;;;;;;5070801;28;20201;-57
2023/09/04 01:06:29;;;;;;;0.00;0.00;;;17.50;56.60;;;;;;5071134;28;20209;-59
2023/09/04 01:09:00;;;;;;;0.05;0.05;;;17.50;56.60;;;;;;5071185;28;20218;-58
2023/09/04 01:11:40;;;;;;;0.10;0.10;;;17.50;56.60;;;;;;5070807;28;20755;-59
2023/09/04 01:14:16;;;;;;;0.10;0.10;;;17.50;56.60;;;;;;5080007;22;20233;-48
2023/09/04 01:16:49;;;;;;;0.10;0.10;;;17.50;56.60;;;;;;5072165;28;20568;-47
2023/09/04 01:19:21;;;;;;;0.10;0.10;;;17.50;56.70;;;;;;5071587;28;20383;-48
2023/09/04 01:21:54;;;;;;;0.03;0.03;;;17.50;56.70;;;;;;5054531;28;20195;-49
2023/09/04 01:24:24;;;;;;;0.10;0.10;;;17.50;56.70;;;;;;5067771;28;20517;-48
2023/09/04 01:27:01;;;;;;;0.10;0.10;;;17.50;56.70;;;;;;5073796;28;20215;-48
2023/09/04 01:29:37;;;;;;;0.10;0.10;;;17.50;56.70;;;;;;5073651;28;20277;-49
2023/09/04 01:32:12;;;;;;;0.00;0.00;;;17.60;56.70;;;;;;5073428;28;20191;-48
2023/09/04 01:34:45;;;;;;;0.00;0.00;;;17.60;56.70;;;;;;5073700;28;20226;-47
2023/09/04 01:37:19;;;;;;;0.10;0.10;;;17.60;56.70;;;;;;5074093;28;20223;-53
2023/09/04 01:39:51;;;;;;;0.10;0.10;;;17.60;56.50;;;;;;5073512;28;20565;-52
2023/09/04 01:42:21;;;;;;;0.10;0.10;;;17.60;56.30;;;;;;5074378;28;20195;-47
2023/09/04 01:44:52;;;;;;;0.10;0.10;;;17.60;56.20;;;;;;5072874;28;20218;-48
2023/09/04 01:47:23;;;;;;;0.00;0.00;;;17.50;56.10;;;;;;5073536;28;20234;-47
2023/09/04 01:49:53;;;;;;;0.10;0.10;;;17.50;56.20;;;;;;5073942;28;20194;-48
2023/09/04 01:52:26;;;;;;;0.10;0.10;;;17.40;56.80;;;;;;5073775;28;20561;-48
2023/09/04 01:54:56;;;;;;;0.10;0.10;;;17.40;56.30;;;;;;5074003;28;20563;-47
2023/09/04 01:57:27;;;;;;;0.08;0.08;;;17.40;56.40;;;;;;5072421;28;20221;-49
2023/09/04 01:59:57;;;;;;;0.10;0.10;;;17.40;56.50;;;;;;5071266;28;20222;-48
2023/09/04 02:02:28;;;;;;;0.10;0.10;;;17.40;56.60;;;;;;5072516;28;20819;-48
2023/09/04 02:04:59;;;;;;;0.10;0.10;;;17.40;56.70;;;;;;5073351;28;20195;-47
2023/09/04 02:07:31;;;;;;;0.10;0.10;;;17.40;56.80;;;;;;5073674;28;20218;-47
2023/09/04 02:10:03;;;;;;;0.10;0.10;;;17.40;56.90;;;;;;5069827;28;20195;-47
2023/09/04 02:12:33;;;;;;;0.00;0.00;;;17.40;56.90;;;;;;5074245;28;20449;-47
2023/09/04 02:15:04;;;;;;;0.00;0.00;;;17.50;56.90;;;;;;5085049;22;20227;-60
2023/09/04 02:17:35;;;;;;;0.10;0.10;;;17.50;56.90;;;;;;5073268;28;20238;-59
2023/09/04 02:20:06;;;;;;;0.10;0.10;;;17.50;56.90;;;;;;5073078;28;20230;-60
2023/09/04 02:22:39;;;;;;;0.00;0.00;;;17.50;56.90;;;;;;5072466;28;20191;-60
2023/09/04 02:25:10;;;;;;;0.10;0.10;;;17.50;56.90;;;;;;5072339;28;20530;-59
2023/09/04 02:27:40;;;;;;;0.08;0.08;;;17.60;57.50;;;;;;5071965;28;20701;-60
2023/09/04 02:30:11;;;;;;;0.10;0.10;;;17.60;57.00;;;;;;5073028;28;20304;-60
2023/09/04 02:32:43;;;;;;;0.03;0.03;;;17.60;56.90;;;;;;5073173;28;20210;-60
2023/09/04 02:35:13;;;;;;;0.00;0.00;;;17.60;57.00;;;;;;5072626;28;20195;-60
2023/09/04 02:37:46;;;;;;;0.10;0.10;;;17.60;56.90;;;;;;5072946;28;20222;-60
2023/09/04 02:40:17;;;;;;;0.08;0.08;;;17.60;56.90;;;;;;5072631;28;20219;-59
2023/09/04 02:42:47;;;;;;;0.10;0.10;;;17.60;56.90;;;;;;5072576;28;20191;-59
2023/09/04 02:45:18;;;;;;;0.10;0.10;;;17.70;56.90;;;;;;5072403;28;20671;-60
2023/09/04 02:47:49;;;;;;;0.00;0.00;;;17.70;57.00;;;;;;5072795;28;20211;-60
2023/09/04 02:50:20;;;;;;;0.10;0.10;;;17.70;57.00;;;;;;5072063;28;20199;-60
2023/09/04 02:52:52;;;;;;;0.00;0.00;;;17.70;57.00;;;;;;5072790;28;20201;-60
2023/09/04 02:55:23;;;;;;;0.20;0.20;;;17.70;56.90;;;;;;5071459;28;20449;-59
2023/09/04 02:57:54;;;;;;;0.10;0.10;;;17.70;56.90;;;;;;5072607;28;20226;-59
2023/09/04 03:00:24;;;;;;;0.10;0.10;;;17.80;56.90;;;;;;5071897;28;20225;-59
2023/09/04 03:02:55;;;;;;;0.10;0.10;;;17.80;56.90;;;;;;5073022;28;20199;-60
2023/09/04 03:05:27;;;;;;;0.10;0.10;;;17.80;56.90;;;;;;5072800;28;20565;-60
2023/09/04 03:08:00;;;;;;;0.05;0.05;;;17.80;56.90;;;;;;5072901;28;20398;-59
2023/09/04 03:10:32;;;;;;;0.05;0.05;;;17.80;56.90;;;;;;5072276;28;20533;-59
2023/09/04 03:13:03;;;;;;;0.00;0.00;;;17.80;56.80;;;;;;5072212;28;20226;-60
2023/09/04 03:15:34;;;;;;;0.10;0.10;;;17.80;56.90;;;;;;5072236;28;20199;-59
2023/09/04 03:18:05;;;;;;;0.00;0.00;;;17.80;56.80;;;;;;5069888;28;20756;-59
2023/09/04 03:20:36;;;;;;;0.00;0.00;;;17.80;56.80;;;;;;5071016;28;20227;-60
2023/09/04 03:23:09;;;;;;;0.10;0.10;;;17.80;56.80;;;;;;5072037;28;20194;-59
2023/09/04 03:25:40;;;;;;;0.00;0.00;;;17.80;56.80;;;;;;5071055;28;20246;-60
2023/09/04 03:28:10;;;;;;;0.10;0.10;;;17.80;56.80;;;;;;5071973;28;20211;-60
2023/09/04 03:30:41;;;;;;;0.00;0.00;;;17.80;56.80;;;;;;5072110;28;20202;-59
2023/09/04 03:33:12;;;;;;;0.00;0.00;;;17.80;56.80;;;;;;5071912;28;20202;-60
2023/09/04 03:35:45;;;;;;;0.05;0.05;;;17.90;56.90;;;;;;5072015;28;20650;-60
2023/09/04 03:38:19;;;;;;;0.10;0.10;;;17.90;56.80;;;;;;5071902;28;20215;-60
2023/09/04 03:40:49;;;;;;;0.00;0.00;;;17.80;56.70;;;;;;5070619;28;20751;-58
2023/09/04 03:43:20;;;;;;;0.10;0.10;;;17.90;56.80;;;;;;5072551;28;20201;-58
2023/09/04 03:45:51;;;;;;;0.10;0.10;;;17.90;56.80;;;;;;5072072;28;20199;-59
2023/09/04 03:48:21;;;;;;;0.10;0.10;;;17.90;56.80;;;;;;5071897;28;20218;-59
2023/09/04 03:50:52;;;;;;;0.10;0.10;;;17.90;56.80;;;;;;5071958;28;20198;-59
2023/09/04 03:53:24;;;;;;;0.00;0.00;;;17.90;56.80;;;;;;5055321;28;20189;-59
2023/09/04 03:55:55;;;;;;;0.10;0.10;;;17.90;56.80;;;;;;5051787;28;20589;-59
2023/09/04 03:58:26;;;;;;;0.00;0.00;;;17.90;56.80;;;;;;5051310;28;20226;-58
2023/09/04 04:00:59;;;;;;;0.10;0.10;;;17.90;56.80;;;;;;5050927;28;20219;-59
2023/09/04 04:03:30;;;;;;;0.00;0.00;;;17.90;56.80;;;;;;5059093;28;20198;-57
2023/09/04 04:06:01;;;;;;;0.00;0.00;;;17.90;56.70;;;;;;5071252;28;20222;-59
2023/09/04 04:08:33;;;;;;;0.10;0.10;;;17.90;56.90;;;;;;5068358;28;20732;-58
2023/09/04 04:11:04;;;;;;;0.10;0.10;;;17.90;56.90;;;;;;5070657;28;20206;-58
2023/09/04 04:13:37;;;;;;;0.00;0.00;;;17.90;56.90;;;;;;5071461;28;20191;-59
2023/09/04 04:16:09;;;;;;;0.10;0.10;;;17.90;56.90;;;;;;5071071;28;20678;-58
2023/09/04 04:18:39;;;;;;;0.10;0.10;;;17.90;56.80;;;;;;5071331;28;20211;-58
2023/09/04 04:21:10;;;;;;;0.05;0.05;;;17.90;56.80;;;;;;5071410;28;20587;-58
2023/09/04 04:23:42;;;;;;;0.00;0.00;;;17.90;56.70;;;;;;5069945;28;20260;-58
2023/09/04 04:26:13;;;;;;;0.10;0.10;;;17.90;56.60;;;;;;5071124;28;20198;-58
2023/09/04 04:28:43;;;;;;;0.10;0.10;;;17.90;56.50;;;;;;5070115;28;20206;-58
2023/09/04 04:31:14;;;;;;;0.10;0.10;;;17.90;56.50;;;;;;5070793;28;20256;-58
2023/09/04 04:33:45;;;;;;;0.10;0.10;;;17.90;56.40;;;;;;5070219;28;20201;-58
2023/09/04 04:36:15;;;;;;;0.00;0.00;;;17.80;56.90;;;;;;5070266;28;20663;-59
2023/09/04 04:38:48;;;;;;;0.10;0.10;;;17.80;56.30;;;;;;5070186;28;20773;-58
2023/09/04 04:41:18;;;;;;;0.00;0.00;;;17.80;56.30;;;;;;5070964;28;20233;-58
2023/09/04 04:43:49;;;;;;;0.00;0.00;;;17.80;56.30;;;;;;5069855;28;20199;-58
2023/09/04 04:46:20;;;;;;;0.10;0.10;;;17.80;56.30;;;;;;5070279;28;20205;-58
2023/09/04 04:48:50;;;;;;;0.00;0.00;;;17.80;56.20;;;;;;5070557;28;20660;-58
2023/09/04 04:51:21;;;;;;;0.10;0.10;;;17.80;56.20;;;;;;5073438;28;20206;-59
2023/09/04 04:53:53;;;;;;;0.10;0.10;;;17.80;56.30;;;;;;5074163;28;20564;-58
2023/09/04 04:56:24;;;;;;;0.10;0.10;;;17.80;56.30;;;;;;5074291;28;20698;-59
2023/09/04 04:58:55;;;;;;;0.10;0.10;;;17.80;56.30;;;;;;5074154;28;20275;-58
2023/09/04 05:01:25;;;;;;;0.00;0.00;;;17.70;56.20;;;;;;5073823;28;20712;-59
2023/09/04 05:03:56;;;;;;;0.00;0.00;;;17.80;56.20;;;;;;5074813;28;20201;-59
2023/09/04 05:06:27;;;;;;;0.10;0.10;;;17.70;56.20;;;;;;5074661;28;20199;-58
2023/09/04 05:08:59;;;;;;;0.10;0.10;;;17.80;56.20;;;;;;5073953;28;20202;-59
2023/09/04 05:11:30;;;;;;;0.00;0.00;;;17.80;56.20;;;;;;5074415;28;20214;-59
2023/09/04 05:14:01;;;;;;;0.10;0.10;;;17.70;56.40;;;;;;5074832;28;20207;-58
2023/09/04 05:16:31;;;;;;;0.08;0.08;;;17.70;56.10;;;;;;5074482;28;20244;-58
2023/09/04 05:19:02;;;;;;;0.10;0.10;;;17.70;56.10;;;;;;5073912;28;20186;-59
2023/09/04 05:21:33;;;;;;;0.10;0.10;;;17.70;56.10;;;;;;5074146;28;20300;-59
2023/09/04 05:24:06;;;;;;;0.00;0.00;;;17.70;56.10;;;;;;5073043;28;20199;-58
2023/09/04 05:26:36;;;;;;;0.10;0.10;;;17.60;56.10;;;;;;5073362;28;20711;-59
2023/09/04 05:29:07;;;;;;;0.10;0.10;;;17.70;56.10;;;;;;5073795;28;20206;-59
2023/09/04 05:31:38;;;;;;;0.05;0.05;;;17.60;56.10;;;;;;5073659;28;20203;-58
2023/09/04 05:34:08;;;;;;;0.10;0.10;;;17.60;56.10;;;;;;5074068;28;20202;-59
2023/09/04 05:36:39;;;;;;;0.00;0.00;;;17.70;56.10;;;;;;5073528;28;20222;-59
2023/09/04 05:39:11;;;;;;;0.08;0.08;;;17.60;56.00;;;;;;5073584;28;20197;-59
2023/09/04 05:41:42;;;;;;;0.00;0.00;;;17.70;56.10;;;;;;5073215;28;20309;-58
2023/09/04 05:44:13;;;;;;;0.10;0.10;;;17.60;56.00;;;;;;5073587;28;20194;-59
2023/09/04 05:46:44;;;;;;;0.00;0.00;;;17.60;56.00;;;;;;5072512;28;20592;-59
2023/09/04 05:49:14;;;;;;;0.00;0.00;;;17.60;56.00;;;;;;5073826;28;20194;-59
2023/09/04 05:51:45;;;;;;;0.10;0.10;;;17.60;56.00;;;;;;5073837;28;20198;-59
2023/09/04 05:54:17;;;;;;;0.00;0.00;;;17.60;56.00;;;;;;5072467;28;20608;-59
2023/09/04 05:56:48;;;;;;;0.00;0.00;;;17.60;56.00;;;;;;5073964;28;20561;-58
2023/09/04 05:59:19;;;;;;;0.00;0.00;;;17.60;56.00;;;;;;5072913;28;20195;-59
2023/09/04 06:01:49;;;;;;;0.10;0.10;;;17.50;56.00;;;;;;5072726;28;20215;-58
2023/09/04 06:04:20;;;;;;;0.00;0.00;;;17.50;55.90;;;;;;5073397;28;20217;-59
2023/09/04 06:06:51;;;;;;;0.05;0.05;;;17.50;55.90;;;;;;5073253;28;20264;-59
2023/09/04 06:09:23;;;;;;;0.10;0.10;;;17.50;55.90;;;;;;5072642;28;20198;-59
2023/09/04 06:11:55;;;;;;;0.00;0.00;;;17.50;56.00;;;;;;5072826;28;20199;-58
2023/09/04 06:14:25;;;;;;;0.10;0.10;;;17.50;55.90;;;;;;5088851;22;20654;-47
2023/09/04 06:16:56;;;;;;;0.00;0.00;;;17.50;56.00;;;;;;5093406;28;20221;-48
2023/09/04 06:19:27;;;;;;;0.00;0.00;;;17.50;56.00;;;;;;5093323;28;20194;-47
2023/09/04 06:21:58;;;;;;;0.10;0.10;;;17.50;55.90;;;;;;5092854;28;20271;-47
2023/09/04 06:24:32;;;;;;;0.10;0.10;;;17.50;55.90;;;;;;5092199;28;20221;-48
2023/09/04 06:27:02;;;;;;;0.10;0.10;;;17.50;55.90;;;;;;5093168;28;20218;-47
2023/09/04 06:29:33;;;;;;;0.10;0.10;;;17.50;55.90;;;;;;5073781;28;20599;-48
2023/09/04 06:32:04;;;;;;;0.10;0.10;;;17.50;55.90;;;;;;5071983;28;20681;-48
2023/09/04 06:34:35;;;;;;;0.10;0.10;;;17.50;55.90;;;;;;5079525;28;20205;-48
2023/09/04 06:37:05;;;;;;;0.05;0.05;;;17.50;56.00;;;;;;5092704;28;20214;-47
2023/09/04 06:39:38;;;;;;;0.10;0.10;;;17.50;56.00;;;;;;5092780;28;20194;-48
2023/09/04 06:42:09;;;;;;;0.00;0.00;;;17.50;56.00;;;;;;5093189;28;20221;-47
2023/09/04 06:44:39;;;;;;;0.00;0.00;;;17.50;56.00;;;;;;5092905;28;20209;-46
2023/09/04 06:47:10;;;;;;;0.10;0.10;;;17.50;56.10;;;;;;5092644;28;20218;-47
2023/09/04 06:49:41;;;;;;;0.00;0.00;;;17.40;56.10;;;;;;5093089;28;20283;-47
2023/09/04 06:52:12;;;;;;;0.00;0.00;;;17.50;56.10;;;;;;5092188;28;20206;-47
2023/09/04 06:54:44;;;;;;;0.10;0.10;;;17.50;56.10;;;;;;5092814;28;20190;-47
2023/09/04 06:57:15;;;;;;;0.10;0.10;;;17.40;56.00;;;;;;5092708;28;20214;-48
2023/09/04 06:59:45;;;;;;;0.00;0.00;;;17.40;56.10;;;;;;5072933;28;20195;-48
2023/09/04 07:02:16;;;;;;;0.00;0.00;;;17.40;56.00;;;;;;5082856;28;20225;-48
2023/09/04 07:04:47;;;;;;;0.10;0.10;;;17.40;56.00;;;;;;5078656;28;20202;-48
2023/09/04 07:07:17;;;;;;;0.00;0.00;;;17.40;56.10;;;;;;5092242;28;20697;-48
2023/09/04 07:09:50;;;;;;;0.00;0.00;;;17.40;56.00;;;;;;5092852;28;20190;-48
2023/09/04 07:12:20;;;;;;;0.05;0.05;;;17.40;56.00;;;;;;5091730;28;20205;-49
2023/09/04 07:14:51;;;;;;;0.10;0.10;;;17.40;56.00;;;;;;5083823;22;20231;-59
2023/09/04 07:17:22;;;;;;;0.10;0.10;;;17.40;56.00;;;;;;5071742;28;20223;-59
2023/09/04 07:19:52;;;;;;;0.10;0.10;;;17.40;56.00;;;;;;5072118;28;20561;-59
2023/09/04 07:22:24;;;;;;;0.00;0.00;;;17.40;56.00;;;;;;5071541;28;20237;-59
2023/09/04 07:24:56;;;;;;;0.08;0.08;;;17.40;56.00;;;;;;5071844;28;20726;-59
2023/09/04 07:27:27;;;;;;;0.00;0.00;;;17.40;56.00;;;;;;5071908;28;20222;-59
2023/09/04 07:29:58;;;;;;;0.05;0.05;;;17.40;56.00;;;;;;5071362;28;20689;-59
2023/09/04 07:32:29;;;;;;;0.00;0.00;;;17.40;56.00;;;;;;5071677;28;20467;-58
2023/09/04 07:35:00;;;;;;;0.10;0.10;;;17.40;56.00;;;;;;5072090;28;20207;-59
2023/09/04 07:37:30;;;;;;;0.10;0.10;;;17.40;56.00;;;;;;5071247;28;20226;-60
2023/09/04 07:40:04;;;;;;;0.10;0.10;;;17.40;56.00;;;;;;5052040;28;20200;-60
2023/09/04 07:42:36;;;;;;;0.10;0.10;;;17.40;56.00;;;;;;5057847;28;20230;-60
2023/09/04 07:45:07;;;;;;;0.10;0.10;;;17.40;56.00;;;;;;5072279;28;20677;-60
2023/09/04 07:47:38;;;;;;;0.10;0.10;;;17.40;56.00;;;;;;5071418;28;20559;-60
2023/09/04 07:50:09;;;;;;;0.10;0.10;;;17.40;56.00;;;;;;5071251;28;20187;-61
2023/09/04 07:52:40;;;;;;;0.00;0.00;;;17.40;55.90;;;;;;5070693;28;20198;-60
2023/09/04 07:55:12;;;;;;;0.00;0.00;;;17.40;56.00;;;;;;5071243;28;20202;-59
2023/09/04 07:57:43;;;;;;;0.00;0.00;;;17.40;56.00;;;;;;5071709;28;20391;-60
2023/09/04 08:00:19;;;;;;;0.03;0.03;;;17.40;56.00;;;;;;5071833;28;20606;-60
2023/09/04 08:02:50;;;;;;;0.10;0.10;;;17.40;56.00;;;;;;5071788;28;20190;-60
2023/09/04 08:05:23;;;;;;;0.10;0.10;;;17.40;56.00;;;;;;5071404;28;20610;-59
2023/09/04 08:07:53;;;;;;;0.00;0.00;;;17.30;55.90;;;;;;5070642;28;20656;-59
2023/09/04 08:10:26;;;;;;;0.00;0.00;;;17.30;55.90;;;;;;5070981;28;20202;-59
2023/09/04 08:12:57;;;;;;;0.03;0.03;;;17.30;55.90;;;;;;5071103;28;20199;-59
2023/09/04 08:15:28;;;;;;;0.00;0.00;;;17.30;55.90;;;;;;5070689;28;20681;-60
2023/09/04 08:17:58;;;;;;;0.00;0.00;;;17.30;55.90;;;;;;5090346;22;20241;-46
2023/09/04 08:20:29;;;;;;;0.00;0.00;;;17.30;55.90;;;;;;5091617;28;20677;-49
2023/09/04 08:22:59;;;;;;;0.10;0.10;;;17.30;55.90;;;;;;5090727;28;20673;-47
2023/09/04 08:25:32;;;;;;;0.10;0.10;;;17.30;55.90;;;;;;5091340;28;20210;-48
2023/09/04 08:28:03;;;;;;;0.10;0.10;;;17.30;55.90;;;;;;5078625;28;20301;-47
2023/09/04 08:30:34;;;;;;;0.10;0.10;;;17.30;55.90;;;;;;5071296;28;20201;-45
2023/09/04 08:33:04;;;;;;;0.10;0.10;;;17.30;55.90;;;;;;5071133;28;20229;-48
2023/09/04 08:35:35;;;;;;;0.03;0.03;;;17.30;55.90;;;;;;5083495;28;20201;-49
2023/09/04 08:38:07;;;;;;;0.08;0.08;;;17.30;55.90;;;;;;5090979;28;20260;-48
2023/09/04 08:40:43;;;;;;;0.08;0.08;;;17.30;55.90;;;;;;5091278;28;20197;-48
2023/09/04 08:43:14;;;;;;;0.10;0.10;;;17.30;55.90;;;;;;5091459;28;20197;-47
2023/09/04 08:45:45;;;;;;;0.13;0.13;;;17.30;55.80;;;;;;5091417;28;20680;-48
2023/09/04 08:48:16;;;;;;;0.00;0.00;;;17.30;55.80;;;;;;5091663;28;20221;-48
2023/09/04 08:50:47;;;;;;;0.10;0.10;;;17.30;55.80;;;;;;5091365;28;20268;-49
2023/09/04 08:53:18;;;;;;;0.10;0.10;;;17.30;55.80;;;;;;5091236;28;20194;-47
2023/09/04 08:55:51;;;;;;;0.10;0.10;;;17.30;55.80;;;;;;5091045;28;20202;-48
2023/09/04 08:58:22;;;;;;;0.08;0.08;;;17.30;55.80;;;;;;5091341;28;20619;-48
2023/09/04 09:00:53;;;;;;;0.10;0.10;;;17.30;55.80;;;;;;5091484;28;20198;-47
2023/09/04 09:03:24;;;;;;;0.10;0.10;;;17.20;55.80;;;;;;5090980;28;20195;-49
2023/09/04 09:05:56;;;;;;;0.10;0.10;;;17.30;55.90;;;;;;5090136;28;20210;-49
2023/09/04 09:08:27;;;;;;;0.10;0.10;;;17.30;55.80;;;;;;5091396;28;20728;-47
2023/09/04 09:11:00;;;;;;;0.10;0.10;;;17.20;55.80;;;;;;5090525;28;20247;-48
2023/09/04 09:13:31;;;;;;;0.10;0.10;;;17.20;55.90;;;;;;5091086;28;20278;-48
2023/09/04 09:16:01;;;;;;;0.10;0.10;;;17.30;55.90;;;;;;5090945;28;20206;-49
2023/09/04 09:18:40;;;;;;;0.10;0.10;;;17.20;55.80;;;;;;5091419;28;20584;-56
2023/09/04 09:21:30;;;;;;;0.10;0.10;;;17.20;55.80;;;;;;5091759;28;20225;-52
2023/09/04 09:24:23;;;;;;;0.03;0.03;;;17.20;55.30;;;;;;5091264;28;20198;-55
2023/09/04 09:26:56;;;;;;;0.00;0.00;;;17.20;54.70;;;;;;5072518;28;20226;-47
2023/09/04 09:29:28;;;;;;;0.10;0.10;;;17.10;57.20;;;;;;5090804;28;20595;-48
2023/09/04 09:31:59;;;;;;;0.03;0.03;;;17.20;59.00;;;;;;5090928;28;20240;-47
2023/09/04 09:34:35;;;;;;;0.10;0.10;;;17.20;59.40;;;;;;5091239;28;20202;-44
2023/09/04 09:37:08;;;;;;;0.10;0.10;;;17.20;59.40;;;;;;5091464;28;20214;-46
2023/09/04 09:39:38;;;;;;;0.10;0.10;;;17.30;59.30;;;;;;5082454;28;20274;-44
2023/09/04 09:42:11;;;;;;;0.10;0.10;;;17.30;59.20;;;;;;5093847;28;20234;-47
2023/09/04 09:44:42;;;;;;;0.10;0.10;;;17.30;59.00;;;;;;5086201;28;20191;-47
2023/09/04 09:47:14;;;;;;;0.10;0.10;;;17.30;58.80;;;;;;5087438;28;20217;-47
2023/09/04 09:49:45;;;;;;;0.10;0.10;;;17.30;58.60;;;;;;5093922;28;20652;-47
2023/09/04 09:52:16;;;;;;;0.20;0.20;;;17.30;58.40;;;;;;5093943;28;20198;-48
2023/09/04 09:54:47;;;;;;;0.10;0.10;;;17.30;58.20;;;;;;5093738;28;20193;-48
2023/09/04 09:57:20;;;;;;;0.10;0.10;;;17.30;58.10;;;;;;5094385;28;20206;-48
2023/09/04 09:59:52;;;;;;;0.08;0.08;;;17.30;58.00;;;;;;5094087;28;20222;-47
2023/09/04 10:02:24;;;;;;;0.00;0.00;;;17.30;57.90;;;;;;5093877;28;20700;-48
2023/09/04 10:04:55;;;;;;;0.10;0.10;;;17.30;57.80;;;;;;5093859;28;20285;-47
2023/09/04 10:07:29;;;;;;;0.10;0.10;;;17.30;57.70;;;;;;5093561;28;20557;-48
2023/09/04 10:10:05;;;;;;;0.10;0.10;;;17.30;57.60;;;;;;5091795;28;20679;-47
2023/09/04 10:12:43;;;;;;;0.00;0.00;;;17.20;57.60;;;;;;5093686;28;20190;-47
2023/09/04 10:15:15;;;;;;;0.00;0.00;;;17.20;57.50;;;;;;5093032;28;20182;-47
2023/09/04 10:17:51;;;;;;;0.10;0.10;;;17.20;57.40;;;;;;5093984;28;20221;-45
2023/09/04 10:20:24;;;;;;;0.10;0.10;;;17.20;57.40;;;;;;5073060;28;20198;-47
2023/09/04 10:23:00;;;;;;;0.10;0.10;;;17.20;57.30;;;;;;5073264;28;20754;-45
2023/09/04 10:25:38;;;;;;;0.10;0.10;;;17.20;57.30;;;;;;5092995;28;20197;-47
2023/09/04 10:28:15;;;;;;;0.05;0.05;;;17.20;57.20;;;;;;5092689;28;20302;-45
2023/09/04 10:30:47;;;;;;;0.10;0.10;;;17.20;57.20;;;;;;5091689;28;20198;-48
2023/09/04 10:33:18;;;;;;;0.10;0.10;;;17.20;57.20;;;;;;5081423;28;20202;-49
2023/09/04 10:35:48;;;;;;;0.00;0.00;;;17.20;57.10;;;;;;5093266;28;20587;-45
2023/09/04 10:38:20;;;;;;;0.00;0.00;;;17.20;57.10;;;;;;5092368;28;20214;-47
2023/09/04 10:40:51;;;;;;;0.10;0.10;;;17.20;57.10;;;;;;5093292;28;20202;-47
2023/09/04 10:43:23;;;;;;;0.10;0.10;;;17.10;57.00;;;;;;5092271;28;20229;-50
2023/09/04 10:46:10;;;;;;;0.00;0.00;;;17.10;57.00;;;;;;5093460;28;20201;-48
2023/09/04 10:48:48;;;;;;;0.10;0.10;;;17.10;57.00;;;;;;5092069;28;20225;-48
2023/09/04 10:51:32;;;;;;;0.10;0.10;;;17.10;56.90;;;;;;5092905;28;20571;-47
2023/09/04 10:54:03;;;;;;;0.10;0.10;;;17.10;57.00;;;;;;5092013;28;20198;-47
2023/09/04 10:56:56;;;;;;;0.00;0.00;;;17.10;56.90;;;;;;5092451;28;20201;-48
2023/09/04 10:59:29;;;;;;;0.00;0.00;;;17.10;56.90;;;;;;5092171;28;20578;-46
2023/09/04 11:01:59;;;;;;;0.05;0.05;;;17.10;56.90;;;;;;5091539;28;20249;-48
2023/09/04 11:04:49;;;;;;;0.10;0.10;;;17.10;56.90;;;;;;5092254;28;20771;-47
2023/09/04 11:07:31;;;;;;;0.10;0.10;;;17.10;56.90;;;;;;5092589;28;20221;-46
2023/09/04 11:10:38;;;;;;;0.10;0.10;;;17.10;56.90;;;;;;5091704;28;20194;-47
2023/09/04 11:13:11;;;;;;;0.10;0.10;;;17.10;56.80;;;;;;5091594;28;20496;-48
2023/09/04 11:15:43;;;;;;;0.00;0.00;;;17.10;56.80;;;;;;5072433;28;20639;-48
2023/09/04 11:18:17;;;;;;;0.10;0.10;;;17.00;56.80;;;;;;5071551;28;20222;-48
2023/09/04 11:20:49;;;;;;;0.00;0.00;;;17.00;56.80;;;;;;5072828;28;20601;-49
2023/09/04 11:23:21;;;;;;;0.10;0.10;;;17.00;56.80;;;;;;5082381;28;20221;-49
2023/09/04 11:25:52;;;;;;;0.00;0.00;;;17.00;56.80;;;;;;5092120;28;20194;-46
2023/09/04 11:28:23;;;;;;;0.10;0.10;;;17.00;56.80;;;;;;5092063;28;20711;-49
2023/09/04 11:30:57;;;;;;;0.10;0.10;;;17.00;56.80;;;;;;5089613;28;20195;-48
2023/09/04 11:33:29;;;;;;;0.00;0.00;;;17.00;56.80;;;;;;5091027;28;20201;-48
2023/09/04 11:36:04;;;;;;;0.10;0.10;;;17.00;56.70;;;;;;5089923;28;20281;-49
2023/09/04 11:38:36;;;;;;;0.00;0.00;;;17.00;56.70;;;;;;5091799;28;20206;-49
2023/09/04 11:41:17;;;;;;;0.10;0.10;;;17.00;56.70;;;;;;5092169;28;20186;-50
2023/09/04 11:43:48;;;;;;;0.10;0.10;;;17.00;56.70;;;;;;5091156;28;20221;-48
2023/09/04 11:46:20;;;;;;;0.10;0.10;;;17.00;56.70;;;;;;5089629;28;20194;-50
2023/09/04 11:48:52;;;;;;;0.10;0.10;;;17.00;56.70;;;;;;5091876;28;20199;-47
2023/09/04 11:51:23;;;;;;;0.10;0.10;;;17.00;56.70;;;;;;5092088;28;20243;-48
2023/09/04 11:53:55;;;;;;;0.10;0.10;;;16.90;56.60;;;;;;5092032;28;20190;-48
2023/09/04 11:56:26;;;;;;;0.10;0.10;;;17.00;56.70;;;;;;5091775;28;20194;-49
2023/09/04 11:58:57;;;;;;;0.10;0.10;;;16.90;56.60;;;;;;5089219;28;20186;-48
2023/09/04 12:01:30;;;;;;;0.10;0.10;;;16.90;56.60;;;;;;5091202;28;20309;-48
2023/09/04 12:04:02;;;;;;;0.10;0.10;;;17.00;57.20;;;;;;5089342;28;20190;-48
2023/09/04 12:06:33;;;;;;;0.10;0.10;;;17.00;56.60;;;;;;5091179;28;20210;-48
2023/09/04 12:09:06;;;;;;;0.10;0.10;;;16.90;56.60;;;;;;5091091;28;20235;-47
2023/09/04 12:11:36;;;;;;;0.10;0.10;;;17.00;56.60;;;;;;5090845;28;20218;-48
2023/09/04 12:14:12;;;;;;;0.10;0.10;;;16.90;56.50;;;;;;5091635;28;20547;-47
2023/09/04 12:16:46;;;;;;;0.10;0.10;;;16.90;56.50;;;;;;5086806;28;20202;-46
2023/09/04 12:19:17;;;;;;;0.10;0.10;;;16.90;56.50;;;;;;5083335;22;20246;-59
2023/09/04 12:21:47;;;;;;;0.10;0.10;;;16.90;56.50;;;;;;5071593;28;20237;-59
2023/09/04 12:24:19;;;;;;;0.10;0.10;;;16.90;56.50;;;;;;5068693;28;20194;-60
2023/09/04 12:26:52;;;;;;;0.10;0.10;;;16.90;56.50;;;;;;5068263;28;20599;-58
2023/09/04 12:29:22;;;;;;;0.10;0.10;;;16.90;56.50;;;;;;5071450;28;20202;-60
2023/09/04 12:31:55;;;;;;;0.10;0.10;;;16.90;56.50;;;;;;5071171;28;20202;-57
2023/09/04 12:34:28;;;;;;;0.00;0.00;;;16.90;56.50;;;;;;5067858;28;20623;-59
2023/09/04 12:36:59;;;;;;;0.10;0.10;;;16.90;56.50;;;;;;5051435;28;20284;-61
2023/09/04 12:39:30;;;;;;;0.03;0.03;;;16.90;56.50;;;;;;5051324;28;20647;-57
2023/09/04 12:42:03;;;;;;;0.10;0.10;;;16.80;56.40;;;;;;5051333;28;20198;-60
2023/09/04 12:44:34;;;;;;;0.10;0.10;;;16.80;56.50;;;;;;5051573;28;20667;-59
2023/09/04 12:47:06;;;;;;;0.00;0.00;;;16.80;56.50;;;;;;5051484;28;20225;-61
2023/09/04 12:49:37;;;;;;;0.10;0.10;;;16.80;56.50;;;;;;5051171;28;20206;-55
2023/09/04 12:52:08;;;;;;;0.10;0.10;;;16.80;56.50;;;;;;5051862;28;20210;-60
2023/09/04 12:54:38;;;;;;;0.10;0.10;;;16.80;56.50;;;;;;5051646;28;20198;-61
2023/09/04 12:57:09;;;;;;;0.17;0.17;;;16.80;56.50;;;;;;5051235;28;20559;-61
2023/09/04 12:59:40;;;;;;;0.00;0.00;;;16.80;56.40;;;;;;5051230;28;20195;-61
2023/09/04 13:02:12;;;;;;;0.05;0.05;;;16.80;56.40;;;;;;5050795;28;20219;-58
2023/09/04 13:04:43;;;;;;;0.10;0.10;;;16.80;56.40;;;;;;5051245;28;20254;-57
2023/09/04 13:07:13;;;;;;;0.03;0.03;;;16.80;56.40;;;;;;5051421;28;20706;-59
2023/09/04 13:09:44;;;;;;;0.10;0.10;;;16.80;56.40;;;;;;5051426;28;20202;-59
2023/09/04 13:12:15;;;;;;;0.10;0.10;;;16.80;56.40;;;;;;5053399;28;20214;-57